createdAt,value
2019-05-16T00:03:32.792Z,5.36
2019-05-16T00:08:36.070Z,5.35
2019-05-16T00:13:39.444Z,5.36
2019-05-16T00:18:42.926Z,5.39
2019-05-16T00:23:48.380Z,5.35
2019-05-16T00:28:51.266Z,5.39
2019-05-16T00:33:54.565Z,5.41
2019-05-16T00:38:57.973Z,5.43
2019-05-16T00:44:01.228Z,5.41
2019-05-16T00:49:04.533Z,5.44
2019-05-16T00:54:08.355Z,5.44
2019-05-16T00:59:11.680Z,5.39
2019-05-16T01:04:14.968Z,5.39
2019-05-16T01:09:18.822Z,5.37
2019-05-16T01:14:22.223Z,5.42
2019-05-16T01:19:27.687Z,5.45
2019-05-16T01:24:30.545Z,5.44
2019-05-16T01:29:33.887Z,5.44
2019-05-16T01:34:37.799Z,5.42
2019-05-16T01:39:41.172Z,5.44
2019-05-16T01:44:44.631Z,5.42
2019-05-16T01:49:48.721Z,5.37
2019-05-16T01:54:52.191Z,5.38
2019-05-16T01:59:55.589Z,5.43
2019-05-16T02:04:59.162Z,5.37
2019-05-16T02:10:02.514Z,5.43
2019-05-16T02:15:07.837Z,5.38
2019-05-16T02:20:11.219Z,5.26
2019-05-16T02:25:14.778Z,5.45
2019-05-16T02:30:21.806Z,5.49
2019-05-16T02:35:23.356Z,5.47
2019-05-16T02:40:26.885Z,5.35
2019-05-16T02:45:32.604Z,5.32
2019-05-16T02:50:35.195Z,5.45
2019-05-16T02:55:40.967Z,5.47
2019-05-16T03:00:43.546Z,5.49
2019-05-16T03:05:50.574Z,5.54
2019-05-16T03:10:53.385Z,5.52
2019-05-16T03:16:00.583Z,5.50
2019-05-16T03:21:02.865Z,5.46
2019-05-16T03:26:06.153Z,5.33
2019-05-16T03:31:14.171Z,5.29
2019-05-16T03:36:15.839Z,5.30
2019-05-16T03:41:21.561Z,5.33
2019-05-16T03:46:24.368Z,5.31
2019-05-16T03:51:30.681Z,5.28
2019-05-16T03:56:32.667Z,5.32
2019-05-16T04:01:35.948Z,5.29
2019-05-16T04:06:41.549Z,5.37
2019-05-16T04:11:44.258Z,5.41
2019-05-16T04:16:50.904Z,5.39
2019-05-16T04:21:52.586Z,5.47
2019-05-16T04:26:55.874Z,5.47
2019-05-16T04:32:01.446Z,5.52
2019-05-16T04:37:04.226Z,5.51
2019-05-16T04:42:11.052Z,5.55
2019-05-16T04:47:13.514Z,5.58
2019-05-16T04:52:16.792Z,5.65
2019-05-16T04:57:20.924Z,5.73
2019-05-16T05:02:24.360Z,5.69
2019-05-16T05:07:27.657Z,5.64
2019-05-16T05:12:31.662Z,5.71
2019-05-16T05:17:35.013Z,5.60
2019-05-16T05:22:39.816Z,5.77
2019-05-16T05:27:43.302Z,5.87
2019-05-16T05:32:46.584Z,5.90
2019-05-16T05:37:50.731Z,5.98
2019-05-16T05:42:54.145Z,6.11
2019-05-16T05:48:00.030Z,6.12
2019-05-16T05:53:02.459Z,6.28
2019-05-16T05:58:05.748Z,6.40
2019-05-16T06:03:10.699Z,6.44
2019-05-16T06:08:14.276Z,6.54
2019-05-16T06:13:20.202Z,6.72
2019-05-16T06:18:23.553Z,6.65
2019-05-16T06:23:26.876Z,6.64
2019-05-16T06:28:30.749Z,6.55
2019-05-16T06:33:34.324Z,6.69
2019-05-16T06:38:37.614Z,6.70
2019-05-16T06:43:40.903Z,6.77
2019-05-16T06:48:44.197Z,6.80
2019-05-16T06:53:49.833Z,6.90
2019-05-16T06:58:52.501Z,6.83
2019-05-16T07:03:55.777Z,6.95
2019-05-16T07:09:01.094Z,6.90
2019-05-16T07:14:04.153Z,6.96
2019-05-16T07:19:07.464Z,6.84
2019-05-16T07:24:11.115Z,7.06
2019-05-16T07:29:14.402Z,7.17
2019-05-16T07:34:17.689Z,7.18
2019-05-16T07:39:20.973Z,7.08
2019-05-16T07:44:25.185Z,7.09
2019-05-16T07:49:30.396Z,7.12
2019-05-16T07:54:34.596Z,7.12
2019-05-16T07:59:37.993Z,7.08
2019-05-16T08:04:41.277Z,7.06
2019-05-16T08:09:44.569Z,7.04
2019-05-16T08:14:50.127Z,7.11
2019-05-16T08:19:52.881Z,7.25
2019-05-16T08:25:02.362Z,7.43
2019-05-16T08:30:07.391Z,7.47
2019-05-16T08:35:11.325Z,7.45
2019-05-16T08:40:14.810Z,7.57
2019-05-16T08:45:21.010Z,7.63
2019-05-16T08:50:23.345Z,7.57
2019-05-16T08:55:26.707Z,7.45
2019-05-16T09:00:33.404Z,7.64
2019-05-16T09:05:35.195Z,7.66
2019-05-16T09:10:59.921Z,7.68
2019-05-16T09:15:43.642Z,7.76
2019-05-16T09:20:49.912Z,8.01
2019-05-16T09:25:52.356Z,8.13
2019-05-16T09:30:57.732Z,8.05
2019-05-16T09:36:01.725Z,8.17
2019-05-16T09:41:07.669Z,8.02
2019-05-16T09:46:16.966Z,7.93
2019-05-16T09:51:21.435Z,8.00
2019-05-16T09:56:27.060Z,8.03
2019-05-16T10:01:29.928Z,8.19
2019-05-16T10:06:34.205Z,8.17
2019-05-16T10:11:41.759Z,8.28
2019-05-16T10:16:43.695Z,8.16
2019-05-16T10:21:47.052Z,8.27
2019-05-16T10:26:54.027Z,8.32
2019-05-16T10:31:56.817Z,8.43
2019-05-16T10:37:00.330Z,8.36
2019-05-16T10:42:03.696Z,8.39
2019-05-16T10:47:07.698Z,8.80
2019-05-16T10:52:11.058Z,8.83
2019-05-16T10:57:14.432Z,8.74
2019-05-16T11:02:19.750Z,8.74
2019-05-16T11:07:23.001Z,8.96
2019-05-16T11:12:45.211Z,8.97
2019-05-16T11:17:31.624Z,8.90
2019-05-16T11:22:37.060Z,8.76
2019-05-16T11:27:39.960Z,8.90
2019-05-16T11:32:43.248Z,8.87
2019-05-16T11:37:47.291Z,8.60
2019-05-16T11:43:05.464Z,8.84
2019-05-16T11:47:56.708Z,8.76
2019-05-16T11:53:00.100Z,8.63
2019-05-16T11:58:03.480Z,8.86
2019-05-16T12:03:06.776Z,8.40
2019-05-16T12:08:10.110Z,8.75
2019-05-16T12:13:25.217Z,8.81
2019-05-16T12:18:18.432Z,8.97
2019-05-16T12:23:22.850Z,9.04
2019-05-16T12:28:27.371Z,8.99
2019-05-16T12:33:30.708Z,8.96
2019-05-16T12:38:34.070Z,8.97
2019-05-16T12:43:45.890Z,9.05
2019-05-16T12:48:42.439Z,9.09
2019-05-16T12:53:47.708Z,9.16
2019-05-16T12:58:51.074Z,9.19
2019-05-16T13:03:54.445Z,9.35
2019-05-16T13:08:59.707Z,9.42
2019-05-16T13:14:08.024Z,9.54
2019-05-16T13:19:09.488Z,9.74
2019-05-16T13:24:12.773Z,9.84
2019-05-16T13:29:18.124Z,9.82
2019-05-16T13:34:21.107Z,9.75
2019-05-16T13:39:24.400Z,9.56
2019-05-16T13:44:27.704Z,9.69
2019-05-16T13:49:30.999Z,9.59
2019-05-16T13:54:36.356Z,9.43
2019-05-16T13:59:39.365Z,9.49
2019-05-16T14:04:43.792Z,9.41
2019-05-16T14:09:47.397Z,9.30
2019-05-16T14:14:52.003Z,9.23
2019-05-16T14:19:57.321Z,9.18
2019-05-16T14:25:00.327Z,9.17
2019-05-16T14:30:07.486Z,9.15
2019-05-16T14:35:10.110Z,9.13
2019-05-16T14:40:13.632Z,9.03
2019-05-16T14:45:18.274Z,9.02
2019-05-16T14:50:21.639Z,8.89
2019-05-16T14:55:27.408Z,9.18
2019-05-16T15:00:30.227Z,9.06
2019-05-16T15:05:33.568Z,8.97
2019-05-16T15:10:37.585Z,8.93
2019-05-16T15:15:41.202Z,8.85
2019-05-16T15:20:46.881Z,8.90
2019-05-16T15:25:49.549Z,8.84
2019-05-16T15:30:52.853Z,8.78
2019-05-16T15:35:57.745Z,8.80
2019-05-16T15:41:01.248Z,8.90
2019-05-16T15:46:07.640Z,8.97
2019-05-16T15:51:09.586Z,8.98
2019-05-16T15:56:12.881Z,8.73
2019-05-16T16:01:18.566Z,8.78
2019-05-16T16:06:22.010Z,8.64
2019-05-16T16:11:27.302Z,8.58
2019-05-16T16:16:30.340Z,8.54
2019-05-16T16:21:33.640Z,8.62
2019-05-16T16:26:38.201Z,8.67
2019-05-16T16:31:41.615Z,8.65
2019-05-16T16:36:47.388Z,8.58
2019-05-16T16:41:49.923Z,8.57
2019-05-16T16:46:53.231Z,8.65
2019-05-16T16:51:57.273Z,8.65
2019-05-16T16:57:00.611Z,8.67
2019-05-16T17:02:03.921Z,8.68
2019-05-16T17:07:07.233Z,8.69
2019-05-16T17:12:10.533Z,8.64
2019-05-16T17:17:13.844Z,8.60
2019-05-16T17:22:20.786Z,8.59
2019-05-16T17:27:26.658Z,8.53
2019-05-16T17:32:31.197Z,8.54
2019-05-16T17:37:37.278Z,8.55
2019-05-16T17:42:39.507Z,8.57
2019-05-16T17:47:42.807Z,8.62
2019-05-16T17:52:47.644Z,8.58
2019-05-16T17:57:51.186Z,8.58
2019-05-16T18:02:56.898Z,8.54
2019-05-16T18:07:59.514Z,8.58
2019-05-16T18:13:02.820Z,8.55
2019-05-16T18:18:07.209Z,8.49
2019-05-16T18:23:10.782Z,8.51
2019-05-16T18:28:14.081Z,8.52
2019-05-16T18:33:17.438Z,8.44
2019-05-16T18:38:20.747Z,8.48
2019-05-16T18:43:24.033Z,8.35
2019-05-16T18:48:28.300Z,8.29
2019-05-16T18:53:31.589Z,8.25
2019-05-16T18:58:37.011Z,8.32
2019-05-16T19:03:39.930Z,8.29
2019-05-16T19:08:43.214Z,8.25
2019-05-16T19:13:47.461Z,8.24
2019-05-16T19:18:50.893Z,8.28
2019-05-16T19:23:56.159Z,8.21
2019-05-16T19:28:59.230Z,8.08
2019-05-16T19:34:02.570Z,8.16
2019-05-16T19:39:08.052Z,8.00
2019-05-16T19:44:12.343Z,8.03
2019-05-16T19:49:15.660Z,8.09
2019-05-16T19:54:18.931Z,8.03
2019-05-16T19:59:22.221Z,7.89
2019-05-16T20:04:27.374Z,7.91
2019-05-16T20:09:30.538Z,7.87
2019-05-16T20:14:33.847Z,7.91
2019-05-16T20:19:37.163Z,7.91
2019-05-16T20:24:40.737Z,7.84
2019-05-16T20:29:44.114Z,7.86
2019-05-16T20:34:47.395Z,7.78
2019-05-16T20:39:50.679Z,7.87
2019-05-16T20:44:53.975Z,7.77
2019-05-16T20:49:57.376Z,7.86
2019-05-16T20:55:00.746Z,7.86
2019-05-16T21:00:07.263Z,7.73
2019-05-16T21:05:10.893Z,7.63
2019-05-16T21:10:16.693Z,7.70
2019-05-16T21:15:19.482Z,7.64
2019-05-16T21:20:22.762Z,7.59
2019-05-16T21:25:26.434Z,7.51
2019-05-16T21:30:29.729Z,7.51
2019-05-16T21:35:33.025Z,7.52
2019-05-16T21:40:37.096Z,7.55
2019-05-16T21:45:40.593Z,7.57
2019-05-16T21:50:46.177Z,7.54
2019-05-16T21:55:48.946Z,7.38
2019-05-16T22:00:56.560Z,7.25
2019-05-16T22:06:00.940Z,7.32
2019-05-16T22:11:06.581Z,7.39
2019-05-16T22:16:09.371Z,7.49
2019-05-16T22:21:12.747Z,7.50
2019-05-16T22:26:16.809Z,7.45
2019-05-16T22:31:20.329Z,7.55
2019-05-16T22:36:23.643Z,7.44
2019-05-16T22:41:26.920Z,7.40
2019-05-16T22:46:30.220Z,7.54
2019-05-16T22:51:33.512Z,7.56
2019-05-16T22:56:37.504Z,7.53
2019-05-16T23:01:41.072Z,7.52
2019-05-16T23:06:44.376Z,7.61
2019-05-16T23:11:48.653Z,7.61
2019-05-16T23:16:51.936Z,7.55
2019-05-16T23:21:56.838Z,7.50
2019-05-16T23:27:00.292Z,7.49
2019-05-16T23:32:03.663Z,7.43
2019-05-16T23:37:09.878Z,7.38
2019-05-16T23:42:13.203Z,7.37
2019-05-16T23:47:16.578Z,7.35
2019-05-16T23:52:19.857Z,7.35
2019-05-16T23:57:23.154Z,7.31
